createdAt,value
2023-07-01T00:02:06.632Z,20.31
2023-07-01T00:04:33.885Z,20.25
2023-07-01T00:07:01.260Z,20.23
2023-07-01T00:09:28.535Z,20.15
2023-07-01T00:11:55.559Z,20.19
2023-07-01T00:14:22.775Z,20.09
2023-07-01T00:16:49.876Z,20.16
2023-07-01T00:19:17.322Z,20.17
2023-07-01T00:21:44.680Z,20.08
2023-07-01T00:24:11.753Z,20.10
2023-07-01T00:26:38.936Z,20.16
2023-07-01T00:29:06.052Z,20.22
2023-07-01T00:31:34.093Z,20.22
2023-07-01T00:34:01.285Z,20.28
2023-07-01T00:36:28.573Z,20.27
2023-07-01T00:38:55.745Z,20.23
2023-07-01T00:41:22.832Z,20.23
2023-07-01T00:43:50.142Z,20.26
2023-07-01T00:46:18.025Z,20.23
2023-07-01T00:48:45.600Z,20.23
2023-07-01T00:51:13.574Z,20.21
2023-07-01T00:53:41.634Z,20.15
2023-07-01T00:56:09.373Z,20.10
2023-07-01T00:58:36.886Z,20.18
2023-07-01T01:01:10.543Z,20.18
2023-07-01T01:03:51.476Z,20.15
2023-07-01T01:06:40.434Z,20.11
2023-07-01T01:09:22.748Z,20.11
2023-07-01T01:11:52.472Z,19.97
2023-07-01T01:14:19.949Z,19.81
2023-07-01T01:16:50.724Z,19.85
2023-07-01T01:19:37.411Z,20.01
2023-07-01T01:22:16.941Z,20.02
2023-07-01T01:24:48.845Z,20.08
2023-07-01T01:27:20.665Z,20.12
2023-07-01T01:29:48.034Z,20.11
2023-07-01T01:32:15.963Z,20.05
2023-07-01T01:34:43.210Z,20.02
2023-07-01T01:37:22.634Z,20.01
2023-07-01T01:39:55.056Z,20.02
2023-07-01T01:42:28.459Z,20.04
2023-07-01T01:44:57.561Z,20.06
2023-07-01T01:47:30.259Z,19.96
2023-07-01T01:50:02.444Z,19.92
2023-07-01T01:52:34.132Z,20.05
2023-07-01T01:55:02.425Z,20.04
2023-07-01T01:57:31.329Z,20.09
2023-07-01T01:59:58.546Z,20.15
2023-07-01T02:02:25.788Z,20.13
2023-07-01T02:04:53.117Z,20.10
2023-07-01T02:07:20.234Z,20.06
2023-07-01T02:09:47.358Z,20.05
2023-07-01T02:12:14.422Z,20.04
2023-07-01T02:14:41.528Z,19.96
2023-07-01T02:17:08.733Z,19.81
2023-07-01T02:19:55.670Z,19.81
2023-07-01T02:22:22.612Z,19.85
2023-07-01T02:24:49.709Z,19.89
2023-07-01T02:27:16.949Z,19.95
2023-07-01T02:29:45.800Z,20.01
2023-07-01T02:32:13.054Z,20.05
2023-07-01T02:34:40.094Z,20.05
2023-07-01T02:37:07.168Z,20.09
2023-07-01T02:39:34.342Z,20.10
2023-07-01T02:42:01.546Z,20.12
2023-07-01T02:44:28.566Z,20.12
2023-07-01T02:46:55.691Z,20.15
2023-07-01T02:49:22.804Z,20.17
2023-07-01T02:51:50.181Z,20.20
2023-07-01T02:54:17.248Z,20.20
2023-07-01T02:56:44.882Z,20.18
2023-07-01T02:59:12.884Z,20.13
2023-07-01T03:01:40.006Z,20.08
2023-07-01T03:04:19.545Z,20.04
2023-07-01T03:06:47.724Z,20.02
2023-07-01T03:09:15.928Z,20.01
2023-07-01T03:11:43.496Z,19.99
2023-07-01T03:14:10.801Z,20.02
2023-07-01T03:16:37.918Z,19.98
2023-07-01T03:19:06.968Z,19.93
2023-07-01T03:21:35.758Z,19.87
2023-07-01T03:24:03.013Z,19.90
2023-07-01T03:26:30.576Z,19.88
2023-07-01T03:28:58.109Z,19.83
2023-07-01T03:31:25.645Z,19.84
2023-07-01T03:33:52.840Z,19.86
2023-07-01T03:36:20.150Z,19.86
2023-07-01T03:38:47.173Z,19.87
2023-07-01T03:41:14.192Z,19.86
2023-07-01T03:43:41.386Z,19.84
2023-07-01T03:46:08.455Z,19.84
2023-07-01T03:48:35.659Z,19.86
2023-07-01T03:51:02.658Z,19.81
2023-07-01T03:53:29.764Z,19.83
2023-07-01T03:55:56.783Z,19.84
2023-07-01T03:58:26.317Z,19.87
2023-07-01T04:00:55.137Z,19.88
2023-07-01T04:03:25.414Z,19.79
2023-07-01T04:05:53.366Z,19.61
2023-07-01T04:08:21.988Z,19.42
2023-07-01T04:10:49.293Z,19.46
2023-07-01T04:13:16.610Z,19.46
2023-07-01T04:15:43.850Z,19.50
2023-07-01T04:18:10.845Z,19.49
2023-07-01T04:20:37.895Z,19.44
2023-07-01T04:23:05.007Z,19.45
2023-07-01T04:25:32.332Z,19.52
2023-07-01T04:28:00.429Z,19.47
2023-07-01T04:30:27.482Z,19.51
2023-07-01T04:32:54.553Z,19.59
2023-07-01T04:35:21.880Z,19.67
2023-07-01T04:37:48.886Z,19.73
2023-07-01T04:40:16.904Z,19.75
2023-07-01T04:42:52.963Z,19.79
2023-07-01T04:45:20.305Z,19.86
2023-07-01T04:47:49.080Z,19.95
2023-07-01T04:50:16.457Z,20.01
2023-07-01T04:52:45.151Z,20.03
2023-07-01T04:55:12.595Z,20.12
2023-07-01T04:57:40.073Z,20.22
2023-07-01T05:00:10.664Z,20.23
2023-07-01T05:02:38.588Z,20.26
2023-07-01T05:05:06.355Z,20.29
2023-07-01T05:07:33.940Z,20.29
2023-07-01T05:10:03.811Z,20.29
2023-07-01T05:12:32.019Z,20.38
2023-07-01T05:14:58.985Z,20.45
2023-07-01T05:17:26.008Z,20.49
2023-07-01T05:19:53.109Z,20.52
2023-07-01T05:22:20.247Z,20.55
2023-07-01T05:24:47.384Z,20.54
2023-07-01T05:27:14.508Z,20.49
2023-07-01T05:29:41.497Z,20.58
2023-07-01T05:32:08.879Z,20.64
2023-07-01T05:34:35.909Z,20.66
2023-07-01T05:37:03.232Z,20.68
2023-07-01T05:39:31.463Z,20.66
2023-07-01T05:41:58.795Z,20.65
2023-07-01T05:44:26.346Z,20.65
2023-07-01T05:46:54.368Z,20.67
2023-07-01T05:49:21.575Z,20.69
2023-07-01T05:51:48.665Z,20.71
2023-07-01T05:54:15.779Z,20.80
2023-07-01T05:56:43.065Z,20.81
2023-07-01T05:59:10.431Z,20.78
2023-07-01T06:01:37.657Z,20.85
2023-07-01T06:04:05.905Z,20.83
2023-07-01T06:06:33.363Z,20.86
2023-07-01T06:09:00.848Z,20.88
2023-07-01T06:11:28.173Z,20.93
2023-07-01T06:13:55.285Z,20.97
2023-07-01T06:16:22.606Z,21.04
2023-07-01T06:18:49.758Z,21.04
2023-07-01T06:21:16.899Z,21.11
2023-07-01T06:23:44.209Z,21.15
2023-07-01T06:26:11.399Z,21.24
2023-07-01T06:28:42.997Z,21.28
2023-07-01T06:31:10.235Z,21.31
2023-07-01T06:33:40.034Z,21.27
2023-07-01T06:36:10.350Z,21.31
2023-07-01T06:38:37.563Z,21.35
2023-07-01T06:41:04.827Z,21.38
2023-07-01T06:43:32.064Z,21.48
2023-07-01T06:46:00.811Z,21.50
2023-07-01T06:48:28.135Z,21.50
2023-07-01T06:50:55.178Z,21.50
2023-07-01T06:53:22.526Z,21.51
2023-07-01T06:55:50.163Z,21.55
2023-07-01T06:58:17.251Z,21.57
2023-07-01T07:00:44.928Z,21.60
2023-07-01T07:03:12.504Z,21.62
2023-07-01T07:05:39.650Z,21.69
2023-07-01T07:08:07.325Z,21.72
2023-07-01T07:10:35.131Z,21.77
2023-07-01T07:13:02.562Z,21.86
2023-07-01T07:15:29.672Z,21.92
2023-07-01T07:17:56.862Z,22.02
2023-07-01T07:20:24.156Z,22.09
2023-07-01T07:22:51.318Z,22.11
2023-07-01T07:25:18.478Z,22.15
2023-07-01T07:27:50.509Z,22.22
2023-07-01T07:30:17.672Z,22.30
2023-07-01T07:32:45.472Z,22.34
2023-07-01T07:35:12.638Z,22.40
2023-07-01T07:37:39.628Z,22.45
2023-07-01T07:40:09.017Z,22.51
2023-07-01T07:42:36.944Z,22.52
2023-07-01T07:45:05.229Z,22.57
2023-07-01T07:47:34.094Z,22.63
2023-07-01T07:50:02.880Z,22.66
2023-07-01T07:52:33.733Z,22.62
2023-07-01T07:55:01.607Z,22.72
2023-07-01T07:57:32.874Z,22.81
2023-07-01T08:00:00.797Z,22.88
2023-07-01T08:02:28.998Z,22.86
2023-07-01T08:04:56.176Z,22.92
2023-07-01T08:07:23.274Z,22.92
2023-07-01T08:09:50.308Z,23.01
2023-07-01T08:12:17.439Z,23.04
2023-07-01T08:14:44.511Z,23.12
2023-07-01T08:17:11.624Z,23.21
2023-07-01T08:19:38.814Z,23.27
2023-07-01T08:22:05.964Z,23.17
2023-07-01T08:24:33.052Z,23.17
2023-07-01T08:27:00.903Z,23.09
2023-07-01T08:29:28.210Z,23.03
2023-07-01T08:31:55.447Z,22.94
2023-07-01T08:34:22.796Z,22.88
2023-07-01T08:36:50.035Z,22.84
2023-07-01T08:39:17.817Z,22.79
2023-07-01T08:42:05.556Z,22.80
2023-07-01T08:44:36.067Z,22.73
2023-07-01T08:47:05.502Z,22.74
2023-07-01T08:49:35.383Z,22.69
2023-07-01T08:52:12.065Z,22.80
2023-07-01T08:54:40.251Z,22.86
2023-07-01T08:57:10.572Z,22.87
2023-07-01T08:59:37.862Z,22.87
2023-07-01T09:02:05.181Z,22.90
2023-07-01T09:04:32.574Z,22.89
2023-07-01T09:07:00.795Z,23.00
2023-07-01T09:09:28.477Z,23.02
2023-07-01T09:11:55.522Z,23.11
2023-07-01T09:14:23.171Z,23.15
2023-07-01T09:16:50.357Z,23.23
2023-07-01T09:19:22.840Z,23.31
2023-07-01T09:21:50.029Z,23.34
2023-07-01T09:24:17.258Z,23.31
2023-07-01T09:26:44.405Z,23.32
2023-07-01T09:29:16.540Z,23.38
2023-07-01T09:31:53.024Z,23.35
2023-07-01T09:34:20.423Z,23.31
2023-07-01T09:36:47.564Z,23.31
2023-07-01T09:39:14.724Z,23.33
2023-07-01T09:41:41.792Z,23.31
2023-07-01T09:44:20.471Z,23.33
2023-07-01T09:46:48.038Z,23.35
2023-07-01T09:49:15.741Z,23.34
2023-07-01T09:51:51.379Z,23.40
2023-07-01T09:54:30.041Z,23.48
2023-07-01T09:56:59.213Z,23.46
2023-07-01T09:59:27.779Z,23.50
2023-07-01T10:01:57.449Z,23.49
2023-07-01T10:04:30.313Z,23.58
2023-07-01T10:06:58.629Z,23.64
2023-07-01T10:09:28.455Z,23.69
2023-07-01T10:11:59.440Z,23.72
2023-07-01T10:14:29.694Z,23.76
2023-07-01T10:16:57.570Z,23.89
2023-07-01T10:19:35.557Z,23.98
2023-07-01T10:22:28.147Z,24.14
2023-07-01T10:25:07.219Z,24.30
2023-07-01T10:27:41.214Z,24.29
2023-07-01T10:30:10.293Z,24.36
2023-07-01T10:32:37.583Z,24.35
2023-07-01T10:35:04.724Z,24.42
2023-07-01T10:37:34.325Z,24.57
2023-07-01T10:40:09.109Z,24.55
2023-07-01T10:42:37.795Z,24.55
2023-07-01T10:45:14.459Z,24.53
2023-07-01T10:48:02.826Z,24.57
2023-07-01T10:50:30.652Z,24.71
2023-07-01T10:53:00.751Z,24.83
2023-07-01T10:55:48.942Z,24.92
2023-07-01T10:58:22.728Z,24.97
2023-07-01T11:00:55.681Z,25.08
2023-07-01T11:03:35.752Z,25.12
2023-07-01T11:06:08.826Z,25.04
2023-07-01T11:08:45.494Z,25.00
2023-07-01T11:11:18.599Z,25.04
2023-07-01T11:14:11.275Z,24.91
2023-07-01T11:16:39.803Z,24.82
2023-07-01T11:19:09.412Z,24.76
2023-07-01T11:21:38.102Z,24.60
2023-07-01T11:24:06.570Z,24.57
2023-07-01T11:26:36.744Z,24.45
2023-07-01T11:29:09.837Z,24.34
2023-07-01T11:31:41.374Z,24.27
2023-07-01T11:34:08.843Z,24.25
2023-07-01T11:36:40.928Z,24.19
2023-07-01T11:39:10.864Z,24.21
2023-07-01T11:41:39.828Z,24.31
2023-07-01T11:44:12.220Z,24.33
2023-07-01T11:46:42.130Z,24.40
2023-07-01T11:49:18.267Z,24.49
2023-07-01T11:51:50.595Z,24.51
2023-07-01T11:54:21.422Z,24.39
2023-07-01T11:56:49.814Z,24.47
2023-07-01T11:59:31.546Z,24.34
2023-07-01T12:02:00.915Z,24.36
2023-07-01T12:04:32.005Z,24.48
2023-07-01T12:07:09.489Z,24.69
2023-07-01T12:09:38.294Z,24.74
2023-07-01T12:12:05.948Z,24.79
2023-07-01T12:14:33.206Z,24.82
2023-07-01T12:17:01.833Z,24.77
2023-07-01T12:19:31.301Z,24.68
2023-07-01T12:22:00.411Z,24.66
2023-07-01T12:24:30.891Z,24.67
2023-07-01T12:26:59.057Z,24.82
2023-07-01T12:29:26.728Z,24.89
2023-07-01T12:31:55.502Z,25.07
2023-07-01T12:34:23.015Z,25.25
2023-07-01T12:36:50.094Z,25.36
2023-07-01T12:39:19.230Z,25.43
2023-07-01T12:41:53.761Z,25.44
2023-07-01T12:44:20.848Z,25.41
2023-07-01T12:46:48.159Z,25.46
2023-07-01T12:49:15.632Z,25.47
2023-07-01T12:51:44.325Z,25.57
2023-07-01T12:54:18.231Z,25.67
2023-07-01T12:56:46.571Z,25.74
2023-07-01T12:59:13.690Z,25.82
2023-07-01T13:01:44.156Z,25.84
2023-07-01T13:04:12.295Z,25.75
2023-07-01T13:06:40.738Z,25.59
2023-07-01T13:09:11.401Z,25.59
2023-07-01T13:11:40.334Z,25.50
2023-07-01T13:14:14.073Z,25.37
2023-07-01T13:16:43.412Z,25.39
2023-07-01T13:19:15.450Z,25.53
2023-07-01T13:21:45.635Z,25.66
2023-07-01T13:24:16.092Z,25.82
2023-07-01T13:26:45.536Z,25.81
2023-07-01T13:29:20.404Z,25.74
2023-07-01T13:31:49.401Z,25.47
2023-07-01T13:34:23.314Z,25.32
2023-07-01T13:36:54.186Z,25.14
2023-07-01T13:39:37.141Z,25.02
2023-07-01T13:42:04.606Z,24.85
2023-07-01T13:44:31.637Z,24.82
2023-07-01T13:46:59.050Z,24.82
2023-07-01T13:49:30.131Z,24.77
2023-07-01T13:51:57.694Z,24.81
2023-07-01T13:54:26.959Z,24.86
2023-07-01T13:57:02.588Z,24.92
2023-07-01T13:59:31.724Z,24.96
2023-07-01T14:02:12.028Z,25.17
2023-07-01T14:04:39.262Z,25.30
2023-07-01T14:07:07.102Z,25.35
2023-07-01T14:09:37.883Z,25.40
2023-07-01T14:12:05.414Z,25.66
2023-07-01T14:14:34.259Z,25.65
2023-07-01T14:17:02.268Z,25.52
2023-07-01T14:19:29.786Z,25.45
2023-07-01T14:21:58.101Z,25.40
2023-07-01T14:24:28.777Z,25.24
2023-07-01T14:27:00.908Z,25.25
2023-07-01T14:29:28.740Z,25.23
2023-07-01T14:31:57.988Z,25.25
2023-07-01T14:34:32.900Z,25.36
2023-07-01T14:37:00.996Z,25.31
2023-07-01T14:39:30.627Z,25.25
2023-07-01T14:41:57.662Z,25.10
2023-07-01T14:44:25.419Z,25.08
2023-07-01T14:46:52.661Z,25.12
2023-07-01T14:49:19.853Z,25.07
2023-07-01T14:51:47.033Z,25.10
2023-07-01T14:54:14.128Z,25.06
2023-07-01T14:56:41.253Z,24.94
2023-07-01T14:59:08.394Z,24.89
2023-07-01T15:01:35.629Z,24.84
2023-07-01T15:04:02.899Z,24.81
2023-07-01T15:06:30.547Z,24.82
2023-07-01T15:08:57.729Z,24.77
2023-07-01T15:11:24.782Z,24.71
2023-07-01T15:13:51.859Z,24.81
2023-07-01T15:16:20.688Z,24.91
2023-07-01T15:18:48.050Z,25.07
2023-07-01T15:21:15.199Z,25.13
2023-07-01T15:23:42.392Z,25.17
2023-07-01T15:26:09.469Z,25.23
2023-07-01T15:28:36.685Z,25.24
2023-07-01T15:31:07.505Z,25.28
2023-07-01T15:33:35.294Z,25.26
2023-07-01T15:36:02.671Z,25.25
2023-07-01T15:38:30.158Z,25.30
2023-07-01T15:40:57.350Z,25.32
2023-07-01T15:43:24.506Z,25.42
2023-07-01T15:45:53.072Z,25.35
2023-07-01T15:48:22.525Z,25.42
2023-07-01T15:50:49.685Z,25.35
2023-07-01T15:53:17.734Z,25.29
2023-07-01T15:55:45.076Z,25.29
2023-07-01T15:58:12.288Z,25.43
2023-07-01T16:00:40.255Z,25.52
2023-07-01T16:03:09.669Z,25.55
2023-07-01T16:05:37.551Z,25.63
2023-07-01T16:08:06.616Z,25.70
2023-07-01T16:10:34.008Z,25.81
2023-07-01T16:13:07.314Z,25.64
2023-07-01T16:15:56.274Z,25.50
2023-07-01T16:18:43.386Z,25.32
2023-07-01T16:21:13.697Z,25.24
2023-07-01T16:23:48.085Z,25.20
2023-07-01T16:26:43.686Z,25.21
2023-07-01T16:29:11.015Z,25.20
2023-07-01T16:31:41.017Z,25.28
2023-07-01T16:34:09.504Z,25.41
2023-07-01T16:36:37.149Z,25.35
2023-07-01T16:39:13.558Z,25.32
2023-07-01T16:41:40.853Z,25.30
2023-07-01T16:44:07.889Z,25.29
2023-07-01T16:46:39.745Z,25.45
2023-07-01T16:49:09.653Z,25.37
2023-07-01T16:51:38.365Z,25.38
2023-07-01T16:54:12.848Z,25.25
2023-07-01T16:56:44.302Z,25.24
2023-07-01T16:59:24.164Z,25.22
2023-07-01T17:01:52.173Z,25.08
2023-07-01T17:04:33.424Z,24.98
2023-07-01T17:07:01.068Z,24.90
2023-07-01T17:09:38.240Z,24.87
2023-07-01T17:12:07.076Z,24.96
2023-07-01T17:14:44.286Z,24.89
2023-07-01T17:17:35.050Z,24.87
2023-07-01T17:20:04.969Z,24.92
2023-07-01T17:22:35.534Z,24.93
2023-07-01T17:25:07.053Z,24.93
2023-07-01T17:27:34.507Z,24.92
2023-07-01T17:30:02.184Z,24.91
2023-07-01T17:32:35.306Z,24.94
2023-07-01T17:35:24.682Z,24.83
2023-07-01T17:37:52.774Z,24.86
2023-07-01T17:40:21.449Z,24.89
2023-07-01T17:42:52.920Z,24.89
2023-07-01T17:45:20.936Z,24.81
2023-07-01T17:47:48.963Z,24.73
2023-07-01T17:50:21.408Z,24.66
2023-07-01T17:52:51.234Z,24.63
2023-07-01T17:55:18.775Z,24.59
2023-07-01T17:57:56.143Z,24.51
2023-07-01T18:00:25.790Z,24.38
2023-07-01T18:02:55.106Z,24.47
2023-07-01T18:05:22.740Z,24.40
2023-07-01T18:07:50.103Z,24.36
2023-07-01T18:10:20.041Z,24.36
2023-07-01T18:12:47.240Z,24.30
2023-07-01T18:15:16.319Z,24.23
2023-07-01T18:17:46.176Z,24.27
2023-07-01T18:20:14.002Z,24.19
2023-07-01T18:22:41.138Z,24.09
2023-07-01T18:25:08.544Z,24.09
2023-07-01T18:27:35.881Z,24.11
2023-07-01T18:30:05.902Z,24.10
2023-07-01T18:32:42.628Z,24.10
2023-07-01T18:35:13.159Z,24.08
2023-07-01T18:37:40.245Z,24.07
2023-07-01T18:40:07.830Z,24.07
2023-07-01T18:42:34.858Z,24.01
2023-07-01T18:45:02.119Z,23.95
2023-07-01T18:47:31.104Z,23.93
2023-07-01T18:49:58.209Z,23.96
2023-07-01T18:52:25.429Z,23.93
2023-07-01T18:54:52.897Z,23.96
2023-07-01T18:57:23.419Z,23.94
2023-07-01T18:59:50.751Z,23.93
2023-07-01T19:02:19.064Z,23.91
2023-07-01T19:04:46.323Z,23.79
2023-07-01T19:07:14.182Z,23.79
2023-07-01T19:09:41.465Z,23.76
2023-07-01T19:12:09.037Z,23.75
2023-07-01T19:14:36.112Z,23.67
2023-07-01T19:17:04.027Z,23.68
2023-07-01T19:19:31.303Z,23.65
2023-07-01T19:21:58.399Z,23.65
2023-07-01T19:24:25.539Z,23.66
2023-07-01T19:26:52.590Z,23.66
2023-07-01T19:29:27.666Z,23.64
2023-07-01T19:31:55.747Z,23.63
2023-07-01T19:34:23.070Z,23.61
2023-07-01T19:36:50.116Z,23.64
2023-07-01T19:39:17.210Z,23.64
2023-07-01T19:41:44.285Z,23.62
2023-07-01T19:44:11.379Z,23.59
2023-07-01T19:46:38.902Z,23.63
2023-07-01T19:49:06.138Z,23.64
2023-07-01T19:51:33.434Z,23.62
2023-07-01T19:54:00.636Z,23.60
2023-07-01T19:56:27.891Z,23.60
2023-07-01T19:58:55.092Z,23.60
2023-07-01T20:01:22.235Z,23.58
2023-07-01T20:03:50.227Z,23.57
2023-07-01T20:06:17.491Z,23.57
2023-07-01T20:08:44.544Z,23.56
2023-07-01T20:11:11.659Z,23.52
2023-07-01T20:13:38.867Z,23.51
2023-07-01T20:16:06.365Z,23.47
2023-07-01T20:18:34.274Z,23.43
2023-07-01T20:21:01.563Z,23.39
2023-07-01T20:23:28.672Z,23.37
2023-07-01T20:25:55.786Z,23.26
2023-07-01T20:28:22.957Z,23.22
2023-07-01T20:30:50.066Z,23.21
2023-07-01T20:33:17.177Z,23.17
2023-07-01T20:35:44.479Z,23.13
2023-07-01T20:38:11.567Z,23.11
2023-07-01T20:40:38.786Z,23.07
2023-07-01T20:43:10.672Z,23.05
2023-07-01T20:45:37.776Z,23.06
2023-07-01T20:48:05.381Z,23.01
2023-07-01T20:50:32.657Z,22.99
2023-07-01T20:52:59.790Z,22.94
2023-07-01T20:55:26.902Z,22.90
2023-07-01T20:57:54.065Z,22.88
2023-07-01T21:00:21.426Z,22.86
2023-07-01T21:02:49.378Z,22.84
2023-07-01T21:05:16.653Z,22.77
2023-07-01T21:07:43.930Z,22.66
2023-07-01T21:10:12.362Z,22.55
2023-07-01T21:12:40.002Z,22.52
2023-07-01T21:15:07.647Z,22.55
2023-07-01T21:17:35.015Z,22.57
2023-07-01T21:20:02.307Z,22.56
2023-07-01T21:22:32.899Z,22.60
2023-07-01T21:25:00.059Z,22.61
2023-07-01T21:27:54.343Z,22.61
2023-07-01T21:30:30.719Z,22.60
2023-07-01T21:32:58.012Z,22.62
2023-07-01T21:35:30.191Z,22.58
2023-07-01T21:37:58.220Z,22.57
2023-07-01T21:40:28.829Z,22.57
2023-07-01T21:42:58.172Z,22.51
2023-07-01T21:45:33.164Z,22.48
2023-07-01T21:48:01.016Z,22.35
2023-07-01T21:50:28.068Z,22.24
2023-07-01T21:52:55.828Z,22.25
2023-07-01T21:55:23.073Z,22.24
2023-07-01T21:57:58.974Z,22.16
2023-07-01T22:00:26.170Z,22.15
2023-07-01T22:02:58.667Z,22.16
2023-07-01T22:05:26.058Z,22.13
2023-07-01T22:07:53.676Z,22.15
2023-07-01T22:10:20.717Z,22.11
2023-07-01T22:12:47.975Z,22.09
2023-07-01T22:15:17.526Z,22.17
2023-07-01T22:17:45.118Z,22.20
2023-07-01T22:20:12.453Z,22.24
2023-07-01T22:22:39.500Z,22.29
2023-07-01T22:25:06.817Z,22.34
2023-07-01T22:27:34.774Z,22.37
2023-07-01T22:30:02.054Z,22.36
2023-07-01T22:32:33.637Z,22.32
2023-07-01T22:35:00.828Z,22.33
2023-07-01T22:37:28.005Z,22.29
2023-07-01T22:39:55.127Z,22.31
2023-07-01T22:42:22.560Z,22.32
2023-07-01T22:44:49.944Z,22.32
2023-07-01T22:47:17.156Z,22.34
2023-07-01T22:49:44.330Z,22.33
2023-07-01T22:52:11.371Z,22.31
2023-07-01T22:54:39.144Z,22.26
2023-07-01T22:57:06.480Z,22.19
2023-07-01T22:59:33.504Z,22.17
2023-07-01T23:02:00.759Z,22.15
2023-07-01T23:04:28.031Z,22.13
2023-07-01T23:06:55.184Z,22.08
2023-07-01T23:09:22.229Z,22.03
2023-07-01T23:11:49.469Z,22.08
2023-07-01T23:14:16.462Z,22.05
2023-07-01T23:16:43.638Z,22.06
2023-07-01T23:19:12.414Z,22.05
2023-07-01T23:21:39.520Z,22.00
2023-07-01T23:24:06.674Z,21.89
2023-07-01T23:26:36.600Z,21.89
2023-07-01T23:29:04.749Z,21.88
2023-07-01T23:31:31.922Z,21.94
2023-07-01T23:33:59.072Z,21.96
2023-07-01T23:36:26.253Z,21.96
2023-07-01T23:38:53.507Z,21.96
2023-07-01T23:41:20.557Z,21.90
2023-07-01T23:43:47.607Z,21.90
2023-07-01T23:46:14.843Z,21.94
2023-07-01T23:48:41.890Z,21.92
2023-07-01T23:51:08.934Z,21.90
2023-07-01T23:53:36.012Z,21.87
2023-07-01T23:56:05.457Z,21.88
2023-07-01T23:58:33.448Z,21.84
